Time;durP1;ratioP1;P1;durP2;ratioP2;P2;SDS_P1;SDS_P2;PMS_P1;PMS_P2;Temp;Humidity;BMP_temperature;BMP_pressure;BME280_temperature;BME280_humidity;BME280_pressure;Samples;Min_cycle;Max_cycle;Signal;HPM_P1;HPM_P2
2021/03/12 00:02:18;;;;;;;10.00;5.62;;;;;;;6.53;100.00;97765.23;4254061;82;28642;-85
2021/03/12 00:08:24;;;;;;;9.38;5.12;;;;;;;6.53;100.00;97751.09;4242791;82;28582;-81
2021/03/12 00:14:26;;;;;;;9.63;5.10;;;;;;;6.58;100.00;97765.86;4236350;82;28611;-82
2021/03/12 00:20:33;;;;;;;10.48;5.78;;;;;;;6.67;100.00;97759.64;4234364;82;28611;-82
2021/03/12 00:26:35;;;;;;;10.08;5.37;;;;;;;6.69;100.00;97756.20;4222389;82;28557;-82
2021/03/12 00:32:38;;;;;;;8.25;4.60;;;;;;;6.72;100.00;97769.59;4221796;82;28585;-82
2021/03/12 00:38:40;;;;;;;7.30;4.30;;;;;;;6.68;100.00;97786.09;4230082;82;28548;-83
2021/03/12 00:44:43;;;;;;;7.40;3.70;;;;;;;6.75;100.00;97797.98;4234371;82;28641;-81
2021/03/12 00:50:46;;;;;;;6.40;3.83;;;;;;;6.68;100.00;97808.00;4217842;82;28682;-81
2021/03/12 00:56:50;;;;;;;6.25;3.80;;;;;;;6.68;100.00;97791.98;4216302;82;28644;-81
2021/03/12 01:02:54;;;;;;;5.53;3.67;;;;;;;6.67;100.00;97793.03;4235343;82;28661;-81
2021/03/12 01:08:56;;;;;;;6.70;3.77;;;;;;;6.66;100.00;97797.55;4230021;82;28546;-81
2021/03/12 01:15:03;;;;;;;8.68;4.55;;;;;;;6.67;100.00;97801.05;4223946;82;28573;-79
2021/03/12 01:21:05;;;;;;;7.58;4.28;;;;;;;6.67;100.00;97797.83;4220962;82;28595;-80
2021/03/12 01:27:08;;;;;;;6.47;4.37;;;;;;;6.60;100.00;97797.14;4221555;82;28642;-80
2021/03/12 01:33:11;;;;;;;8.10;5.42;;;;;;;6.50;100.00;97791.59;4221726;82;28690;-81
2021/03/12 01:39:14;;;;;;;7.37;4.47;;;;;;;6.33;100.00;97790.17;4229198;82;28588;-81
2021/03/12 01:45:24;;;;;;;7.45;4.55;;;;;;;6.29;100.00;97781.81;4234929;82;28619;-81
2021/03/12 01:51:26;;;;;;;7.62;4.87;;;;;;;6.19;100.00;97775.74;4210179;82;28584;-81
2021/03/12 01:57:28;;;;;;;7.45;4.70;;;;;;;6.16;100.00;97769.55;4238093;82;28599;-81
2021/03/12 02:03:42;;;;;;;7.42;4.55;;;;;;;6.08;100.00;97776.03;4547237;76;57045;-81
2021/03/12 02:09:55;;;;;;;7.65;4.47;;;;;;;5.97;100.00;97789.64;4436132;79;28591;-81
2021/03/12 02:16:08;;;;;;;6.97;4.28;;;;;;;5.83;100.00;97767.72;4311965;81;28608;-81
2021/03/12 02:22:15;;;;;;;6.80;4.05;;;;;;;5.76;100.00;97775.01;4317702;81;28591;-80
2021/03/12 02:28:17;;;;;;;6.60;4.15;;;;;;;5.69;100.00;97775.66;4341922;81;28555;-81
2021/03/12 02:34:28;;;;;;;7.08;3.70;;;;;;;5.60;100.00;97763.70;4311167;81;28546;-79
2021/03/12 02:40:34;;;;;;;5.37;3.35;;;;;;;5.50;100.00;97772.25;4304655;81;28569;-80
2021/03/12 02:46:40;;;;;;;4.75;2.80;;;;;;;5.53;100.00;97768.61;4313954;81;28589;-80
2021/03/12 02:52:46;;;;;;;4.92;2.90;;;;;;;5.65;100.00;97745.14;4286930;81;28670;-82
2021/03/12 02:58:50;;;;;;;5.47;2.87;;;;;;;5.64;100.00;97769.69;4343319;81;28569;-82
2021/03/12 03:04:57;;;;;;;4.97;2.80;;;;;;;5.54;100.00;97762.77;4328328;81;28549;-81
2021/03/12 03:11:14;;;;;;;5.62;2.90;;;;;;;5.48;100.00;97741.02;4250948;82;28534;-82
2021/03/12 03:17:21;;;;;;;3.83;2.52;;;;;;;5.53;100.00;97743.28;4317136;81;28550;-84
2021/03/12 03:23:24;;;;;;;4.37;2.77;;;;;;;5.50;100.00;97721.59;4338966;80;28604;-84
2021/03/12 03:29:26;;;;;;;5.22;2.35;;;;;;;5.39;100.00;97734.68;4319194;81;28563;-83
2021/03/12 03:35:29;;;;;;;4.95;2.30;;;;;;;5.34;100.00;97742.56;4320501;81;28589;-82
2021/03/12 03:41:31;;;;;;;3.98;2.40;;;;;;;5.34;100.00;97746.56;4319423;81;28574;-82
2021/03/12 03:47:37;;;;;;;4.00;2.22;;;;;;;5.34;100.00;97745.73;4318861;81;28671;-82
2021/03/12 03:53:41;;;;;;;4.03;3.00;;;;;;;5.28;100.00;97741.63;4322701;81;28554;-82
2021/03/12 03:59:45;;;;;;;4.42;2.87;;;;;;;5.25;100.00;97747.40;4321235;81;28582;-82
2021/03/12 04:05:50;;;;;;;5.08;2.87;;;;;;;5.29;100.00;97759.75;4218683;84;28554;-79
2021/03/12 04:11:54;;;;;;;5.90;3.02;;;;;;;5.24;100.00;97755.64;4241057;83;28550;-83
2021/03/12 04:18:00;;;;;;;4.95;2.90;;;;;;;5.12;100.00;97759.59;4211481;83;28635;-84
2021/03/12 04:24:05;;;;;;;3.70;2.37;;;;;;;5.02;100.00;97765.48;4296363;83;28590;-83
2021/03/12 04:30:09;;;;;;;5.22;2.80;;;;;;;4.94;100.00;97765.25;4275704;83;28566;-83
2021/03/12 04:36:14;;;;;;;4.37;2.77;;;;;;;4.94;100.00;97783.90;4299370;83;35957;-83
2021/03/12 04:42:17;;;;;;;3.90;2.47;;;;;;;4.96;100.00;97798.34;4306122;81;28570;-83
2021/03/12 04:48:22;;;;;;;4.47;2.42;;;;;;;5.09;100.00;97789.36;4276475;81;28554;-82
2021/03/12 04:54:28;;;;;;;4.17;2.42;;;;;;;5.02;100.00;97799.58;4297030;82;28566;-83
2021/03/12 05:00:31;;;;;;;3.80;2.33;;;;;;;4.91;100.00;97822.98;4281872;81;28629;-85
2021/03/12 05:06:51;;;;;;;4.00;2.80;;;;;;;4.75;100.00;97836.39;4343503;79;272176;-83
2021/03/12 05:12:57;;;;;;;4.42;2.62;;;;;;;4.95;100.00;97838.83;4315201;81;28629;-83
2021/03/12 05:19:04;;;;;;;4.90;2.47;;;;;;;4.71;100.00;97818.70;4322695;81;28532;-81
2021/03/12 05:25:07;;;;;;;4.42;2.45;;;;;;;4.54;100.00;97807.84;4301548;81;28622;-82
2021/03/12 05:31:09;;;;;;;3.83;2.37;;;;;;;4.30;100.00;97825.50;4340209;81;28547;-83
2021/03/12 05:37:11;;;;;;;3.95;2.35;;;;;;;4.21;100.00;97822.32;4334503;81;28559;-83
2021/03/12 05:43:18;;;;;;;5.15;3.00;;;;;;;4.32;100.00;97846.88;4304233;81;28609;-81
2021/03/12 05:49:26;;;;;;;6.45;3.60;;;;;;;4.58;100.00;97862.80;4308046;80;28631;-82
2021/03/12 05:55:29;;;;;;;7.65;3.70;;;;;;;4.89;100.00;97855.69;4307705;81;28600;-82
2021/03/12 06:01:31;;;;;;;6.83;3.95;;;;;;;5.01;100.00;97861.09;4314013;80;28567;-82
2021/03/12 06:07:37;;;;;;;7.92;3.80;;;;;;;5.15;100.00;97859.05;4309559;81;28654;-82
2021/03/12 06:13:55;;;;;;;6.47;3.42;;;;;;;5.31;100.00;97882.95;4296938;81;28544;-82
2021/03/12 06:20:19;;;;;;;7.15;3.95;;;;;;;5.51;100.00;97882.67;4470103;79;86098;-82
2021/03/12 06:26:22;;;;;;;9.33;3.98;;;;;;;5.65;100.00;97905.97;4393870;80;28629;-81
2021/03/12 06:32:45;;;;;;;7.62;3.80;;;;;;;5.86;100.00;97913.96;4424215;80;28537;-85
2021/03/12 06:38:56;;;;;;;4.75;2.77;;;;;;;6.11;100.00;97919.69;4415508;80;28627;-81
2021/03/12 06:45:13;;;;;;;7.12;4.00;;;;;;;6.51;100.00;97927.55;4425085;80;28604;-82
2021/03/12 06:51:16;;;;;;;7.12;3.60;;;;;;;6.82;100.00;97936.77;4427668;80;28630;-81
2021/03/12 06:57:20;;;;;;;7.62;3.45;;;;;;;7.25;100.00;97942.23;4388911;80;28632;-82
2021/03/12 07:03:37;;;;;;;8.73;3.47;;;;;;;7.57;100.00;97950.86;4613407;76;85317;-82
2021/03/12 07:09:57;;;;;;;5.92;3.22;;;;;;;7.57;100.00;97966.91;4432908;78;28660;-83
2021/03/12 07:16:13;;;;;;;6.37;3.10;;;;;;;7.72;100.00;97985.92;4609512;75;85068;-81
2021/03/12 07:22:18;;;;;;;6.53;3.15;;;;;;;7.83;100.00;98000.83;4507052;78;28547;-83
2021/03/12 07:28:26;;;;;;;6.28;2.95;;;;;;;7.85;100.00;97994.70;4497665;78;28587;-79
2021/03/12 07:34:47;;;;;;;5.30;2.50;;;;;;;7.88;100.00;97993.72;4511629;77;28649;-78
2021/03/12 07:40:55;;;;;;;6.05;2.67;;;;;;;8.13;100.00;98022.53;4527163;77;28577;-78
2021/03/12 07:46:59;;;;;;;4.30;2.40;;;;;;;8.29;100.00;98020.42;4503748;77;28562;-78
2021/03/12 07:53:06;;;;;;;6.12;3.12;;;;;;;8.67;100.00;98031.53;4529158;77;28588;-78
2021/03/12 07:59:12;;;;;;;6.72;2.95;;;;;;;8.73;100.00;98040.45;4483859;77;28534;-79
2021/03/12 08:05:40;;;;;;;6.37;3.53;;;;;;;8.85;100.00;98037.16;4543812;76;269582;-79
2021/03/12 08:11:55;;;;;;;7.70;2.80;;;;;;;8.91;100.00;98048.77;4481413;77;28543;-79
2021/03/12 08:18:20;;;;;;;5.03;2.67;;;;;;;8.64;100.00;98029.31;4532330;76;84867;-82
2021/03/12 08:24:49;;;;;;;5.30;2.62;;;;;;;8.51;100.00;98043.31;4411476;79;28654;-83
2021/03/12 08:31:06;;;;;;;5.12;2.83;;;;;;;8.57;100.00;98042.87;4485671;79;86093;-84
2021/03/12 08:37:31;;;;;;;6.35;2.30;;;;;;;8.61;100.00;98053.92;4422056;80;28553;-84
2021/03/12 08:43:56;;;;;;;3.22;1.70;;;;;;;8.89;100.00;98057.05;4373233;79;84767;-82
2021/03/12 08:50:00;;;;;;;3.58;1.57;;;;;;;9.44;100.00;98067.23;4238577;80;28627;-82
2021/03/12 08:56:09;;;;;;;3.58;1.75;;;;;;;9.28;100.00;98080.95;4292928;80;28547;-83
2021/03/12 09:02:24;;;;;;;4.83;1.90;;;;;;;9.62;100.00;98097.80;4317203;80;28562;-82
2021/03/12 09:08:48;;;;;;;5.10;1.90;;;;;;;9.04;100.00;98099.38;4520610;78;84883;-80
2021/03/12 09:14:58;;;;;;;5.78;2.08;;;;;;;8.54;100.00;98119.72;4447605;79;28582;-81
2021/03/12 09:21:08;;;;;;;3.47;1.20;;;;;;;8.46;100.00;98133.46;4442031;78;28589;-82
2021/03/12 09:27:20;;;;;;;2.47;1.02;;;;;;;8.58;100.00;98133.45;4435029;78;28597;-80
2021/03/12 09:33:39;;;;;;;2.37;0.95;;;;;;;8.45;100.00;98143.38;4611371;76;84848;-80
2021/03/12 09:39:44;;;;;;;3.62;1.40;;;;;;;8.33;100.00;98157.31;4497581;78;28592;-82
2021/03/12 09:46:00;;;;;;;4.12;1.10;;;;;;;8.19;100.00;98172.88;4597664;76;85092;-80
2021/03/12 09:52:16;;;;;;;3.08;0.90;;;;;;;8.05;100.00;98199.08;4493223;78;28667;-78
2021/03/12 09:58:21;;;;;;;1.82;1.00;;;;;;;8.17;100.00;98200.38;4356107;80;28595;-80
2021/03/12 10:04:38;;;;;;;2.95;1.77;;;;;;;8.31;100.00;98196.41;4341591;80;28582;-78
2021/03/12 10:10:56;;;;;;;3.92;1.95;;;;;;;8.87;100.00;98215.19;4351464;80;28599;-78
2021/03/12 10:17:19;;;;;;;3.35;1.90;;;;;;;8.06;100.00;98220.25;4354596;81;29007;-81
2021/03/12 10:23:24;;;;;;;6.75;2.42;;;;;;;7.73;100.00;98231.57;4312712;81;28574;-81
2021/03/12 10:29:27;;;;;;;5.00;2.65;;;;;;;7.64;100.00;98253.82;4339905;81;28564;-79
2021/03/12 10:35:44;;;;;;;5.85;3.02;;;;;;;7.73;100.00;98255.11;4348603;81;28547;-84
2021/03/12 10:41:52;;;;;;;6.08;2.83;;;;;;;7.80;100.00;98245.63;4365100;80;28591;-82
2021/03/12 10:48:05;;;;;;;7.33;2.90;;;;;;;7.70;100.00;98235.52;4356895;80;28542;-83
2021/03/12 10:54:13;;;;;;;7.58;2.90;;;;;;;8.04;100.00;98232.26;4350704;81;28550;-82
2021/03/12 11:00:21;;;;;;;4.62;2.20;;;;;;;8.36;100.00;98223.82;4348895;81;28619;-82
2021/03/12 11:06:35;;;;;;;3.45;1.70;;;;;;;8.46;100.00;98215.16;4366493;81;28551;-82
2021/03/12 11:12:42;;;;;;;3.15;1.72;;;;;;;8.09;100.00;98235.03;4352148;81;28547;-84
2021/03/12 11:18:45;;;;;;;3.98;1.98;;;;;;;8.08;100.00;98223.53;4365071;81;28536;-85
2021/03/12 11:24:48;;;;;;;3.62;1.75;;;;;;;8.00;100.00;98286.78;4355124;80;28641;-84
2021/03/12 11:30:55;;;;;;;4.87;1.52;;;;;;;8.04;100.00;98291.16;4321830;81;28556;-87
2021/03/12 11:36:58;;;;;;;2.58;1.22;;;;;;;8.04;100.00;98306.68;4354989;80;28575;-86
2021/03/12 11:43:02;;;;;;;1.55;0.80;;;;;;;7.79;100.00;98317.09;4371989;81;28629;-87
2021/03/12 11:49:04;;;;;;;1.60;1.00;;;;;;;7.49;100.00;98315.78;4388762;80;28545;-85
2021/03/12 11:55:08;;;;;;;1.62;0.70;;;;;;;7.40;100.00;98315.31;4390892;80;28576;-89
2021/03/12 12:01:10;;;;;;;2.10;1.10;;;;;;;7.71;100.00;98329.99;4375186;81;28620;-89
2021/03/12 12:07:15;;;;;;;3.15;1.50;;;;;;;8.06;100.00;98329.21;4314774;82;28611;-90
2021/03/12 12:13:17;;;;;;;3.90;1.87;;;;;;;7.92;100.00;98318.73;4321620;82;28556;-91
2021/03/12 12:19:19;;;;;;;2.98;1.82;;;;;;;7.80;100.00;98300.48;4370922;80;28559;-89
2021/03/12 12:25:22;;;;;;;3.77;2.10;;;;;;;8.03;100.00;98303.71;4374197;80;28641;-88
2021/03/12 12:31:24;;;;;;;5.05;2.20;;;;;;;8.24;100.00;98284.09;4377553;80;28593;-90
2021/03/12 12:37:27;;;;;;;4.28;2.15;;;;;;;8.73;100.00;98280.31;4378127;80;28609;-90
2021/03/12 12:43:29;;;;;;;6.30;2.80;;;;;;;8.87;100.00;98291.03;4354813;80;28641;-89
2021/03/12 12:49:31;;;;;;;5.25;2.30;;;;;;;9.26;100.00;98305.16;4345731;81;28580;-91
2021/03/12 12:55:34;;;;;;;6.80;3.25;;;;;;;9.35;100.00;98327.06;4339472;80;28546;-83
2021/03/12 13:01:37;;;;;;;5.55;2.55;;;;;;;9.45;99.36;98319.20;4340275;81;28554;-80
2021/03/12 13:07:40;;;;;;;5.45;2.70;;;;;;;9.30;100.00;98317.56;4368424;81;28605;-84
2021/03/12 13:13:42;;;;;;;5.15;2.42;;;;;;;9.52;95.33;98316.87;4359413;80;28591;-84
2021/03/12 13:19:47;;;;;;;4.35;2.30;;;;;;;9.28;88.80;98336.60;4358041;80;28567;-85
2021/03/12 13:25:52;;;;;;;4.47;1.90;;;;;;;9.38;89.19;98345.90;4323713;80;28613;-83
2021/03/12 13:31:54;;;;;;;4.72;1.95;;;;;;;8.93;93.75;98358.45;4362325;81;28606;-84
2021/03/12 13:37:56;;;;;;;4.20;1.90;;;;;;;8.55;100.00;98381.23;4306436;80;28650;-85
2021/03/12 13:43:59;;;;;;;5.53;1.87;;;;;;;8.03;100.00;98392.05;4353663;80;28567;-84
2021/03/12 13:50:06;;;;;;;2.58;1.20;;;;;;;8.03;100.00;98374.66;4349075;80;28596;-86
2021/03/12 13:56:17;;;;;;;3.33;1.55;;;;;;;7.87;100.00;98373.47;4418584;79;85682;-84
2021/03/12 14:02:23;;;;;;;3.80;1.55;;;;;;;7.73;100.00;98383.55;4368517;81;28569;-85
2021/03/12 14:08:42;;;;;;;3.47;1.50;;;;;;;7.63;97.05;98385.97;4234761;81;28562;-85
2021/03/12 14:14:52;;;;;;;2.50;1.00;;;;;;;7.26;100.00;98412.27;4260349;81;28543;-88
2021/03/12 14:20:55;;;;;;;1.65;1.00;;;;;;;7.22;100.00;98369.66;4311285;80;28923;-88
2021/03/12 14:26:59;;;;;;;2.15;0.85;;;;;;;7.13;100.00;98370.47;4324365;80;28583;-89
2021/03/12 14:33:20;;;;;;;4.25;1.30;;;;;;;7.25;100.00;98366.52;4312255;81;28560;-88
2021/03/12 14:39:24;;;;;;;3.95;1.70;;;;;;;7.48;100.00;98363.13;4317463;81;28565;-90
2021/03/12 14:45:27;;;;;;;5.83;2.15;;;;;;;7.60;100.00;98369.04;4304572;81;28594;-88
2021/03/12 14:51:47;;;;;;;3.85;1.98;;;;;;;7.64;100.00;98355.48;4322702;81;28556;-90
2021/03/12 14:57:51;;;;;;;7.83;2.92;;;;;;;7.66;100.00;98371.61;4303239;81;28551;-89
2021/03/12 15:03:55;;;;;;;6.45;2.80;;;;;;;7.72;100.00;98349.81;4307874;81;28590;-88
2021/03/12 15:09:57;;;;;;;6.42;2.90;;;;;;;7.72;100.00;98356.50;4309659;80;28550;-88
2021/03/12 15:16:00;;;;;;;6.35;2.85;;;;;;;7.75;100.00;98346.67;4297610;80;28570;-88
2021/03/12 15:22:03;;;;;;;7.03;3.20;;;;;;;7.75;100.00;98349.34;4314784;82;28595;-89
2021/03/12 15:28:07;;;;;;;7.50;3.35;;;;;;;7.72;100.00;98353.83;4343107;82;28563;-89
2021/03/12 15:34:11;;;;;;;6.62;2.83;;;;;;;7.78;99.54;98359.61;4317817;82;28540;-85
2021/03/12 15:40:13;;;;;;;4.85;2.25;;;;;;;7.77;91.70;98365.19;4282857;82;28607;-89
2021/03/12 15:46:16;;;;;;;4.03;1.65;;;;;;;7.70;78.15;98371.98;4296782;82;28583;-90
2021/03/12 15:52:21;;;;;;;4.37;1.87;;;;;;;7.68;79.00;98361.49;4341746;80;28623;-91
2021/03/12 15:58:24;;;;;;;6.00;1.90;;;;;;;7.67;79.35;98372.44;4332112;80;28571;-91
2021/03/12 16:04:26;;;;;;;4.97;1.70;;;;;;;7.56;81.65;98378.58;4320897;80;28590;-82
2021/03/12 16:10:30;;;;;;;5.60;2.00;;;;;;;7.48;84.87;98379.18;4307981;80;28550;-82
2021/03/12 16:16:33;;;;;;;5.45;1.80;;;;;;;7.39;85.10;98385.89;4318033;80;28568;-82
2021/03/12 16:22:40;;;;;;;4.62;2.02;;;;;;;7.26;85.33;98389.55;4321213;80;28563;-82
2021/03/12 16:29:00;;;;;;;9.50;2.60;;;;;;;7.09;84.82;98390.68;4590101;76;84954;-81
2021/03/12 16:35:04;;;;;;;6.05;2.60;;;;;;;6.89;88.37;98396.27;4439913;78;28599;-84
2021/03/12 16:41:11;;;;;;;6.15;2.50;;;;;;;6.73;90.40;98395.80;4420013;78;28549;-83
2021/03/12 16:47:13;;;;;;;6.62;2.65;;;;;;;6.57;92.91;98407.09;4418599;78;28632;-83
2021/03/12 16:53:17;;;;;;;10.18;3.65;;;;;;;6.41;93.99;98414.11;4427941;78;28554;-83
2021/03/12 16:59:20;;;;;;;9.13;3.60;;;;;;;6.25;95.17;98425.32;4431554;78;28610;-82
2021/03/12 17:05:22;;;;;;;7.25;2.98;;;;;;;6.14;95.20;98430.83;4419726;78;28548;-82
2021/03/12 17:11:24;;;;;;;9.10;3.17;;;;;;;6.07;93.26;98438.89;4430245;78;28564;-83
2021/03/12 17:17:28;;;;;;;7.50;3.15;;;;;;;5.76;96.94;98443.70;4433484;78;28620;-81
2021/03/12 17:23:30;;;;;;;9.70;3.17;;;;;;;5.62;97.93;98446.95;4439543;78;28587;-82
2021/03/12 17:29:32;;;;;;;11.03;4.00;;;;;;;5.25;100.00;98452.86;4469261;78;28572;-80
2021/03/12 17:35:35;;;;;;;9.50;3.92;;;;;;;4.97;100.00;98456.13;4473596;78;28631;-81
2021/03/12 17:41:38;;;;;;;11.97;4.67;;;;;;;4.89;100.00;98460.34;4477270;78;28564;-82
2021/03/12 17:47:41;;;;;;;14.00;5.72;;;;;;;4.73;100.00;98469.05;4467704;78;28665;-81
2021/03/12 17:53:43;;;;;;;11.65;5.62;;;;;;;4.57;100.00;98478.82;4467819;78;28608;-83
2021/03/12 17:59:45;;;;;;;13.88;5.67;;;;;;;4.48;100.00;98470.73;4461203;78;28634;-83
2021/03/12 18:05:48;;;;;;;14.58;5.70;;;;;;;4.28;100.00;98475.04;4465235;78;28658;-85
2021/03/12 18:11:50;;;;;;;14.18;5.80;;;;;;;4.21;100.00;98481.36;4468781;78;28654;-82
2021/03/12 18:17:52;;;;;;;14.38;5.37;;;;;;;4.19;100.00;98479.72;4472769;78;28547;-80
2021/03/12 18:23:55;;;;;;;16.90;6.62;;;;;;;4.24;100.00;98488.42;4462376;78;28637;-84
2021/03/12 18:29:57;;;;;;;18.27;7.40;;;;;;;4.25;100.00;98479.41;4427524;78;28609;-83
2021/03/12 18:36:00;;;;;;;18.57;7.45;;;;;;;4.06;100.00;98481.05;4444210;78;28540;-81
2021/03/12 18:42:03;;;;;;;18.45;8.35;;;;;;;3.96;100.00;98484.61;4424209;78;28617;-80
2021/03/12 18:48:07;;;;;;;18.07;8.03;;;;;;;3.90;100.00;98479.09;4433793;78;28658;-81
2021/03/12 18:54:10;;;;;;;18.15;7.75;;;;;;;3.88;100.00;98473.65;4439463;78;28544;-81
2021/03/12 19:00:16;;;;;;;19.10;8.10;;;;;;;3.82;100.00;98473.95;4411191;78;28602;-80
2021/03/12 19:06:18;;;;;;;16.57;7.05;;;;;;;3.67;100.00;98474.11;4441813;78;28553;-78
2021/03/12 19:12:20;;;;;;;21.23;7.92;;;;;;;3.63;100.00;98471.03;4444638;78;28547;-81
2021/03/12 19:18:22;;;;;;;21.27;7.20;;;;;;;3.65;100.00;98476.65;4433311;78;28643;-79
2021/03/12 19:24:25;;;;;;;26.05;9.45;;;;;;;3.75;100.00;98483.23;4432463;78;28653;-80
2021/03/12 19:30:28;;;;;;;23.90;9.73;;;;;;;3.77;100.00;98485.68;4460625;78;28553;-75
2021/03/12 19:36:30;;;;;;;23.60;9.43;;;;;;;3.70;100.00;98484.86;4454906;78;28683;-80
2021/03/12 19:42:32;;;;;;;24.27;9.33;;;;;;;3.55;100.00;98474.38;4454754;78;28553;-78
2021/03/12 19:48:34;;;;;;;23.52;9.58;;;;;;;3.34;100.00;98482.26;4466184;78;28541;-81
2021/03/12 19:54:36;;;;;;;25.17;10.03;;;;;;;3.23;100.00;98477.52;4461306;78;28599;-80
2021/03/12 20:00:38;;;;;;;24.18;9.33;;;;;;;3.06;100.00;98481.00;4454454;78;28617;-81
2021/03/12 20:06:40;;;;;;;22.40;8.75;;;;;;;2.85;100.00;98480.06;4463418;78;28582;-78
2021/03/12 20:12:43;;;;;;;21.70;9.05;;;;;;;2.72;100.00;98479.98;4469129;78;28637;-78
2021/03/12 20:18:45;;;;;;;20.02;7.75;;;;;;;2.61;100.00;98487.47;4457437;78;28601;-76
2021/03/12 20:24:48;;;;;;;15.48;6.83;;;;;;;2.65;100.00;98492.69;4461544;78;28565;-76
2021/03/12 20:30:50;;;;;;;16.82;7.03;;;;;;;2.75;100.00;98497.65;4467075;78;28564;-77
2021/03/12 20:36:52;;;;;;;17.85;7.87;;;;;;;2.89;100.00;98493.25;4451410;78;28589;-76
2021/03/12 20:42:55;;;;;;;19.05;8.05;;;;;;;2.95;100.00;98487.67;4462158;78;28641;-76
2021/03/12 20:48:58;;;;;;;20.02;8.40;;;;;;;2.91;100.00;98489.89;4450837;78;28579;-76
2021/03/12 20:55:00;;;;;;;19.77;7.55;;;;;;;2.83;100.00;98484.75;4454494;78;28565;-77
2021/03/12 21:01:04;;;;;;;21.85;8.68;;;;;;;2.78;100.00;98479.19;4455555;78;28584;-75
2021/03/12 21:07:07;;;;;;;20.37;8.20;;;;;;;2.71;100.00;98480.48;4459367;78;28557;-75
2021/03/12 21:13:09;;;;;;;20.55;7.95;;;;;;;2.67;100.00;98471.77;4458416;78;28603;-76
2021/03/12 21:19:11;;;;;;;17.65;7.58;;;;;;;2.57;100.00;98472.92;4456196;78;28678;-76
2021/03/12 21:25:14;;;;;;;21.37;7.78;;;;;;;2.32;100.00;98477.83;4453083;78;28549;-76
2021/03/12 21:31:19;;;;;;;16.73;6.65;;;;;;;2.20;100.00;98482.33;4442041;78;28587;-76
2021/03/12 21:37:21;;;;;;;25.20;8.63;;;;;;;2.12;100.00;98477.66;4423128;79;28588;-82
2021/03/12 21:43:23;;;;;;;24.75;7.90;;;;;;;2.05;100.00;98481.06;4418144;79;28542;-80
2021/03/12 21:49:26;;;;;;;22.05;7.03;;;;;;;1.97;100.00;98480.38;4411543;79;28566;-79
2021/03/12 21:55:28;;;;;;;22.62;8.45;;;;;;;1.98;100.00;98468.76;4419670;79;28619;-79
2021/03/12 22:01:30;;;;;;;20.40;8.25;;;;;;;2.01;100.00;98465.23;4408789;79;28655;-79
2021/03/12 22:07:36;;;;;;;25.52;9.00;;;;;;;1.96;100.00;98457.00;4415330;79;28604;-76
2021/03/12 22:13:36;;;;;;;23.40;8.98;;;;;;;1.76;100.00;98460.28;4424427;79;28542;-78
2021/03/12 22:19:39;;;;;;;21.65;8.53;;;;;;;1.46;100.00;98452.93;4419804;79;28540;-79
2021/03/12 22:25:42;;;;;;;25.35;9.15;;;;;;;1.23;100.00;98459.19;4419635;79;28608;-78
2021/03/12 22:31:46;;;;;;;21.77;8.50;;;;;;;1.01;100.00;98452.98;4447052;78;28593;-78
2021/03/12 22:37:49;;;;;;;22.90;8.20;;;;;;;0.90;100.00;98461.70;4442813;79;43987;-77
2021/03/12 22:43:52;;;;;;;20.32;8.20;;;;;;;0.91;100.00;98462.02;4435102;78;43917;-77
2021/03/12 22:49:54;;;;;;;26.25;8.05;;;;;;;0.79;100.00;98452.91;4444514;78;28922;-77
2021/03/12 22:55:58;;;;;;;23.02;7.58;;;;;;;0.68;100.00;98451.03;4429042;79;28644;-77
2021/03/12 23:02:00;;;;;;;22.07;8.45;;;;;;;0.51;100.00;98445.57;4411961;79;43984;-77
2021/03/12 23:08:07;;;;;;;23.42;7.85;;;;;;;0.54;100.00;98449.20;4430062;79;43931;-77
2021/03/12 23:14:10;;;;;;;20.48;8.03;;;;;;;0.53;100.00;98440.42;4423326;79;28536;-77
2021/03/12 23:20:14;;;;;;;22.48;7.75;;;;;;;0.37;100.00;98451.98;4431176;79;28668;-77
2021/03/12 23:26:19;;;;;;;24.60;7.85;;;;;;;0.26;100.00;98447.13;4415626;79;28996;-78
2021/03/12 23:32:21;;;;;;;19.35;7.08;;;;;;;0.24;100.00;98439.89;4429597;78;28551;-77
2021/03/12 23:38:24;;;;;;;20.35;7.80;;;;;;;0.11;100.00;98446.61;4418976;78;43956;-77
2021/03/12 23:44:28;;;;;;;18.90;7.33;;;;;;;0.03;100.00;98445.34;4415098;78;43929;-77
2021/03/12 23:50:36;;;;;;;16.48;6.72;;;;;;;-0.09;100.00;98444.13;4414663;79;43951;-77
2021/03/12 23:56:38;;;;;;;18.30;6.25;;;;;;;-0.17;100.00;98439.70;4414832;78;43945;-77
